Time;durP1;ratioP1;P1;durP2;ratioP2;P2;SDS_P1;SDS_P2;PMS_P1;PMS_P2;Temp;Humidity;BMP_temperature;BMP_pressure;BME280_temperature;BME280_humidity;BME280_pressure;Samples;Min_cycle;Max_cycle;Signal;HPM_P1;HPM_P2
2022/09/22 00:01:26;;;;;;;9.45;5.88;;;;;;;8.53;100.00;101477.44;8323626;28;20116;-48
2022/09/22 00:05:27;;;;;;;13.23;6.15;;;;;;;8.53;100.00;101469.34;8324633;28;20033;-48
2022/09/22 00:09:27;;;;;;;12.15;6.55;;;;;;;8.53;100.00;101477.44;8325682;28;20044;-47
2022/09/22 00:13:27;;;;;;;7.20;6.10;;;;;;;8.50;100.00;101477.63;8325315;28;20399;-48
2022/09/22 00:17:30;;;;;;;8.88;6.38;;;;;;;8.57;100.00;101473.59;8333019;28;20312;-47
2022/09/22 00:21:31;;;;;;;6.32;5.43;;;;;;;8.46;100.00;101468.91;8356334;28;20059;-48
2022/09/22 00:25:31;;;;;;;11.40;5.90;;;;;;;8.46;100.00;101470.75;8355122;28;20136;-47
2022/09/22 00:29:32;;;;;;;10.68;6.40;;;;;;;8.41;100.00;101467.47;8337594;28;20494;-48
2022/09/22 00:33:32;;;;;;;9.00;5.60;;;;;;;8.38;100.00;101476.66;8325306;28;20159;-47
2022/09/22 00:37:33;;;;;;;12.80;6.72;;;;;;;8.41;100.00;101468.34;8325225;28;20390;-48
2022/09/22 00:41:39;;;;;;;12.10;6.10;;;;;;;8.38;100.00;101462.34;8350695;28;20489;-47
2022/09/22 00:45:40;;;;;;;9.32;6.22;;;;;;;7.99;100.00;101455.03;8356300;28;20041;-50
2022/09/22 00:50:20;;;;;;;11.93;6.45;;;;;;;7.95;100.00;101461.59;8353185;28;20032;-49
2022/09/22 00:54:21;;;;;;;8.13;5.82;;;;;;;7.93;100.00;101461.69;8356165;28;20040;-48
2022/09/22 00:58:30;;;;;;;10.45;6.40;;;;;;;7.92;100.00;101457.28;8326899;28;20039;-47
2022/09/22 01:02:31;;;;;;;9.02;6.13;;;;;;;7.91;100.00;101460.94;8323281;28;20107;-48
2022/09/22 01:06:33;;;;;;;10.90;6.20;;;;;;;7.96;100.00;101455.22;8323746;28;20029;-51
2022/09/22 01:10:34;;;;;;;8.95;5.80;;;;;;;7.87;100.00;101451.31;8331224;28;20033;-47
2022/09/22 01:15:04;;;;;;;8.45;6.40;;;;;;;7.90;100.00;101447.59;8331203;28;20033;-48
2022/09/22 01:19:45;;;;;;;11.88;6.45;;;;;;;7.96;100.00;101450.72;8357793;28;20142;-50
2022/09/22 01:24:17;;;;;;;9.32;5.85;;;;;;;7.93;100.00;101432.06;8361298;28;20090;-47
2022/09/22 01:32:56;;;;;;;10.73;6.25;;;;;;;7.83;100.00;101427.38;8387762;27;20466;-46
2022/09/22 01:37:19;;;;;;;7.95;5.63;;;;;;;7.79;100.00;101421.38;8384028;28;20490;-47
2022/09/22 01:41:40;;;;;;;6.15;5.55;;;;;;;7.81;100.00;101424.78;8384240;28;20036;-47
2022/09/22 01:45:45;;;;;;;8.60;5.45;;;;;;;7.78;100.00;101422.31;8386132;28;20628;-47
2022/09/22 01:49:51;;;;;;;9.23;5.93;;;;;;;7.80;100.00;101422.19;8351199;28;20038;-50
2022/09/22 01:53:57;;;;;;;10.98;5.28;;;;;;;7.76;100.00;101421.56;8353966;28;20124;-47
2022/09/22 01:58:04;;;;;;;7.00;5.10;;;;;;;7.76;100.00;101426.94;8350556;28;20045;-47
2022/09/22 02:02:15;;;;;;;8.40;5.05;;;;;;;7.82;100.00;101422.97;8355896;28;20033;-47
2022/09/22 02:06:36;;;;;;;8.57;4.75;;;;;;;7.78;100.00;101416.91;8369441;28;20410;-47
2022/09/22 02:10:41;;;;;;;9.98;5.18;;;;;;;7.75;100.00;101414.44;8384578;28;20116;-47
2022/09/22 02:14:42;;;;;;;7.38;4.75;;;;;;;7.73;100.00;101405.63;8380480;28;20033;-48
2022/09/22 02:18:49;;;;;;;8.27;5.22;;;;;;;7.67;100.00;101408.72;8367354;28;20045;-48
2022/09/22 02:22:50;;;;;;;6.90;4.80;;;;;;;7.68;100.00;101401.47;8352381;28;20160;-48
2022/09/22 02:26:50;;;;;;;7.07;4.68;;;;;;;7.68;100.00;101399.66;8353054;28;20084;-54
2022/09/22 02:30:55;;;;;;;8.77;4.32;;;;;;;7.64;100.00;101395.47;8352693;28;20044;-53
2022/09/22 02:34:56;;;;;;;7.55;4.90;;;;;;;7.50;100.00;101392.78;8352370;28;20513;-50
2022/09/22 02:39:05;;;;;;;7.47;5.22;;;;;;;7.58;100.00;101395.84;8352316;28;20569;-49
2022/09/22 02:43:23;;;;;;;7.90;4.70;;;;;;;7.63;100.00;101392.88;8335329;28;20120;-51
2022/09/22 02:47:38;;;;;;;6.28;4.07;;;;;;;7.58;100.00;101390.47;8344399;28;20112;-48
2022/09/22 02:51:40;;;;;;;7.30;4.30;;;;;;;7.53;100.00;101391.72;8329987;28;20060;-48
2022/09/22 02:55:43;;;;;;;9.63;5.60;;;;;;;7.46;100.00;101391.28;8326587;28;20025;-49
2022/09/22 02:59:43;;;;;;;7.40;5.07;;;;;;;7.43;100.00;101388.78;8344517;28;20124;-47
2022/09/22 03:03:43;;;;;;;12.05;5.95;;;;;;;7.35;100.00;101383.03;8361013;28;20025;-47
2022/09/22 03:07:44;;;;;;;7.68;5.40;;;;;;;7.34;100.00;101380.44;8360427;28;20036;-47
2022/09/22 03:11:44;;;;;;;7.57;4.60;;;;;;;7.30;100.00;101382.47;8361355;28;20121;-50
2022/09/22 03:15:45;;;;;;;6.97;5.18;;;;;;;7.31;100.00;101378.81;8358063;28;20037;-48
2022/09/22 03:19:46;;;;;;;8.30;4.68;;;;;;;7.23;100.00;101383.81;8331769;28;20487;-48
2022/09/22 03:23:46;;;;;;;10.10;5.38;;;;;;;7.21;100.00;101375.00;8328403;28;20406;-48
2022/09/22 03:27:47;;;;;;;5.70;4.50;;;;;;;7.21;100.00;101368.75;8331091;28;20082;-47
2022/09/22 03:31:47;;;;;;;7.47;4.25;;;;;;;7.22;100.00;101371.34;8360279;28;20094;-48
2022/09/22 03:35:47;;;;;;;8.40;4.80;;;;;;;7.21;100.00;101364.25;8360016;28;20155;-47
2022/09/22 03:39:48;;;;;;;8.43;4.40;;;;;;;7.22;100.00;101368.66;8348391;28;20080;-47
2022/09/22 03:43:48;;;;;;;5.93;4.05;;;;;;;7.24;100.00;101369.41;8328322;28;20506;-48
2022/09/22 03:47:49;;;;;;;8.85;4.60;;;;;;;7.23;100.00;101356.91;8330671;28;20047;-48
2022/09/22 03:51:49;;;;;;;6.90;4.85;;;;;;;7.26;100.00;101356.72;8359260;28;20055;-49
2022/09/22 03:55:50;;;;;;;8.00;4.32;;;;;;;7.24;100.00;101358.66;8358756;28;20035;-47
2022/09/22 03:59:51;;;;;;;7.57;5.00;;;;;;;7.22;100.00;101365.06;8332729;28;20087;-48
2022/09/22 04:03:51;;;;;;;6.28;3.97;;;;;;;7.14;100.00;101357.50;8300532;28;20037;-47
2022/09/22 04:07:52;;;;;;;8.10;4.13;;;;;;;7.17;100.00;101354.63;8294416;28;20041;-47
2022/09/22 04:11:53;;;;;;;5.22;4.10;;;;;;;7.18;100.00;101359.06;8295461;28;20102;-47
2022/09/22 04:15:53;;;;;;;5.72;4.00;;;;;;;7.16;100.00;101350.22;8292785;28;20050;-47
2022/09/22 04:19:54;;;;;;;5.53;4.03;;;;;;;7.16;100.00;101338.59;8282003;28;20058;-47
2022/09/22 04:23:55;;;;;;;6.68;3.70;;;;;;;7.14;100.00;101343.22;8297481;28;20486;-47
2022/09/22 04:27:56;;;;;;;6.05;3.55;;;;;;;7.18;100.00;101347.44;8304490;28;20072;-49
2022/09/22 04:31:56;;;;;;;5.63;3.80;;;;;;;7.14;100.00;101338.69;8302511;28;20045;-48
2022/09/22 04:35:56;;;;;;;5.90;3.85;;;;;;;7.11;100.00;101346.94;8298863;28;20045;-48
2022/09/22 04:39:58;;;;;;;5.80;3.50;;;;;;;7.10;100.00;101345.22;8296058;28;20367;-49
2022/09/22 04:43:59;;;;;;;6.97;3.85;;;;;;;7.05;100.00;101341.97;8298734;28;20224;-50
2022/09/22 04:48:00;;;;;;;5.45;3.47;;;;;;;6.96;100.00;101337.19;8291293;28;20132;-49
2022/09/22 04:52:01;;;;;;;5.07;3.33;;;;;;;6.90;100.00;101345.66;8294539;28;20399;-48
2022/09/22 04:56:01;;;;;;;7.10;4.07;;;;;;;6.88;100.00;101338.63;8303072;28;20034;-47
2022/09/22 05:00:04;;;;;;;6.80;3.95;;;;;;;6.85;100.00;101349.56;8286313;28;20052;-48
2022/09/22 05:04:04;;;;;;;7.13;4.10;;;;;;;6.80;100.00;101347.16;8304847;28;20395;-52
2022/09/22 05:08:05;;;;;;;7.50;4.97;;;;;;;6.75;100.00;101343.06;8309809;28;20080;-49
2022/09/22 05:12:05;;;;;;;8.35;4.80;;;;;;;6.73;100.00;101340.47;8320652;28;20108;-48
2022/09/22 05:16:07;;;;;;;5.70;4.32;;;;;;;6.73;100.00;101351.22;8308354;28;20400;-48
2022/09/22 05:20:07;;;;;;;10.13;4.65;;;;;;;6.69;100.00;101349.69;8298034;28;20037;-48
2022/09/22 05:24:08;;;;;;;7.15;4.63;;;;;;;6.68;100.00;101353.31;8324390;28;20044;-48
2022/09/22 05:28:08;;;;;;;6.28;4.43;;;;;;;6.67;100.00;101351.59;8325047;28;20091;-50
2022/09/22 05:32:09;;;;;;;6.43;4.40;;;;;;;6.70;100.00;101354.09;8295586;28;20045;-48
2022/09/22 05:36:09;;;;;;;9.55;4.90;;;;;;;7.04;100.00;101350.13;8299366;28;20056;-50
2022/09/22 05:40:11;;;;;;;10.15;4.80;;;;;;;6.88;100.00;101358.31;8332945;28;20040;-48
2022/09/22 05:44:11;;;;;;;6.05;4.28;;;;;;;6.92;100.00;101362.53;8321505;28;20042;-49
2022/09/22 05:48:12;;;;;;;13.25;4.85;;;;;;;7.00;100.00;101360.22;8342140;28;20159;-48
2022/09/22 05:52:12;;;;;;;6.28;4.10;;;;;;;7.12;100.00;101362.13;8355727;28;20033;-49
2022/09/22 05:56:12;;;;;;;8.98;4.53;;;;;;;7.20;100.00;101356.25;8356319;28;20053;-51
2022/09/22 06:00:13;;;;;;;5.10;3.65;;;;;;;7.34;100.00;101359.78;8318008;28;20050;-49
2022/09/22 06:04:14;;;;;;;10.80;4.07;;;;;;;7.44;100.00;101368.13;8315825;28;20091;-49
2022/09/22 06:08:14;;;;;;;6.93;4.03;;;;;;;7.58;100.00;101368.06;8351320;28;20038;-49
2022/09/22 06:12:16;;;;;;;5.70;3.85;;;;;;;7.65;100.00;101367.56;8323620;28;20124;-48
2022/09/22 06:16:17;;;;;;;9.70;4.00;;;;;;;7.84;100.00;101364.53;8324462;28;20030;-48
2022/09/22 06:20:17;;;;;;;8.90;4.45;;;;;;;7.92;100.00;101367.56;8326306;28;20045;-48
2022/09/22 06:24:17;;;;;;;5.10;3.50;;;;;;;8.12;100.00;101368.91;8311855;28;20522;-48
2022/09/22 06:28:18;;;;;;;9.68;3.63;;;;;;;8.32;100.00;101369.28;8317404;28;20038;-48
2022/09/22 06:32:18;;;;;;;4.15;2.97;;;;;;;8.48;100.00;101366.41;8324190;28;20042;-48
2022/09/22 06:36:29;;;;;;;3.83;3.10;;;;;;;8.73;100.00;101377.19;8361057;28;20037;-48
2022/09/22 06:40:31;;;;;;;5.32;2.80;;;;;;;9.03;100.00;101361.53;8344598;28;20514;-48
2022/09/22 06:44:31;;;;;;;5.85;2.63;;;;;;;9.07;100.00;101365.72;8324153;28;20483;-48
2022/09/22 06:48:32;;;;;;;5.05;2.33;;;;;;;9.19;100.00;101365.72;8319318;28;20455;-48
2022/09/22 06:52:32;;;;;;;5.78;2.72;;;;;;;9.52;100.00;101367.78;8328632;28;20065;-48
2022/09/22 06:56:38;;;;;;;4.72;2.50;;;;;;;9.65;99.26;101358.66;8329439;28;20048;-48
2022/09/22 07:00:41;;;;;;;4.70;2.65;;;;;;;9.84;99.55;101368.94;8350782;28;20028;-48
2022/09/22 07:04:42;;;;;;;5.03;2.20;;;;;;;9.92;98.80;101355.72;8361051;28;20399;-50
2022/09/22 07:08:43;;;;;;;6.50;2.60;;;;;;;10.33;99.54;101361.56;8361432;28;20106;-48
2022/09/22 07:12:43;;;;;;;9.73;3.00;;;;;;;10.48;97.82;101373.00;8361226;28;20128;-48
2022/09/22 07:16:44;;;;;;;9.07;2.30;;;;;;;10.46;97.56;101362.31;8360050;28;20029;-50
2022/09/22 07:20:44;;;;;;;4.88;2.53;;;;;;;10.78;97.55;101362.50;8361624;28;20037;-48
2022/09/22 07:24:45;;;;;;;5.10;2.40;;;;;;;11.23;95.61;101359.66;8360806;28;20067;-49
2022/09/22 07:28:49;;;;;;;4.18;2.33;;;;;;;11.04;95.08;101364.84;8357819;28;20390;-50
2022/09/22 07:32:49;;;;;;;4.03;2.20;;;;;;;11.69;94.38;101368.50;8361116;28;20304;-49
2022/09/22 07:36:50;;;;;;;3.03;2.23;;;;;;;11.72;93.44;101367.41;8361178;28;20091;-49
2022/09/22 07:40:52;;;;;;;6.75;2.72;;;;;;;11.66;92.71;101368.78;8356510;28;20345;-48
2022/09/22 07:45:11;;;;;;;6.28;2.70;;;;;;;11.81;92.94;101362.06;8360837;28;20112;-50
2022/09/22 07:49:13;;;;;;;3.33;2.50;;;;;;;12.30;91.96;101363.34;8349561;28;20029;-48
2022/09/22 07:53:14;;;;;;;4.88;2.80;;;;;;;12.25;91.89;101361.03;8341338;28;20153;-49
2022/09/22 07:57:14;;;;;;;10.05;4.10;;;;;;;12.34;91.50;101356.66;8353655;28;20168;-51
2022/09/22 08:01:16;;;;;;;3.57;3.00;;;;;;;12.61;91.15;101351.56;8354327;28;20025;-48
2022/09/22 08:05:16;;;;;;;5.28;2.40;;;;;;;12.86;92.70;101348.44;8359178;28;20287;-49
2022/09/22 08:09:17;;;;;;;5.20;3.10;;;;;;;13.15;88.54;101346.75;8354472;28;20026;-48
2022/09/22 08:13:19;;;;;;;5.38;3.33;;;;;;;13.34;86.81;101346.81;8358509;28;20624;-48
2022/09/22 08:17:20;;;;;;;4.97;2.30;;;;;;;13.62;85.83;101341.47;8357178;28;20029;-49
2022/09/22 08:21:22;;;;;;;5.00;2.40;;;;;;;13.68;83.78;101342.75;8359374;28;20040;-49
2022/09/22 08:25:24;;;;;;;6.90;3.10;;;;;;;14.04;84.55;101342.09;8358620;28;20025;-49
2022/09/22 08:29:25;;;;;;;4.45;2.00;;;;;;;14.39;81.30;101345.09;8354465;28;20077;-48
2022/09/22 08:33:29;;;;;;;5.85;2.20;;;;;;;14.21;81.72;101349.53;8357860;28;20036;-49
2022/09/22 08:37:31;;;;;;;4.38;2.28;;;;;;;14.62;81.04;101342.94;8357766;28;20132;-49
2022/09/22 08:41:40;;;;;;;3.38;2.22;;;;;;;14.97;80.69;101349.41;8353176;28;20055;-49
2022/09/22 08:45:45;;;;;;;4.97;2.00;;;;;;;15.41;79.13;101351.41;8356151;28;20037;-49
2022/09/22 08:54:09;;;;;;;;;;;;;;;15.42;77.06;101344.97;8358498;28;20029;-49
2022/09/22 08:58:41;;;;;;;2.17;1.73;;;;;;;15.99;74.91;101342.88;8351174;28;20531;-52
2022/09/22 09:07:31;;;;;;;3.63;1.98;;;;;;;16.29;74.53;101343.34;8295164;28;20956;-49
2022/09/22 09:11:57;;;;;;;3.92;2.00;;;;;;;16.54;73.75;101356.22;8285521;28;20050;-50
2022/09/22 09:16:56;;;;;;;2.83;2.30;;;;;;;17.75;69.05;101349.53;8284539;28;20048;-48
2022/09/22 09:20:50;;;;;;;2.92;1.60;;;;;;;19.73;61.74;101347.03;8281329;28;20407;-50
2022/09/22 09:24:56;;;;;;;3.88;2.08;;;;;;;21.12;58.26;101331.84;8285679;28;20180;-48
2022/09/22 09:29:02;;;;;;;2.97;1.80;;;;;;;21.75;54.64;101340.38;8278328;28;20107;-51
2022/09/22 09:33:13;;;;;;;2.47;1.67;;;;;;;22.33;54.10;101342.94;8285352;28;20488;-50
2022/09/22 09:37:15;;;;;;;2.67;1.50;;;;;;;22.79;53.35;101330.47;8278515;28;20412;-48
2022/09/22 09:41:21;;;;;;;2.67;1.95;;;;;;;23.28;51.78;101329.56;8284786;28;20026;-49
2022/09/22 09:45:27;;;;;;;2.03;1.50;;;;;;;23.55;51.38;101314.84;8283860;28;20499;-49
2022/09/22 09:49:28;;;;;;;4.18;1.90;;;;;;;23.99;50.23;101318.00;8285413;28;20042;-49
2022/09/22 09:53:36;;;;;;;1.92;1.73;;;;;;;24.13;49.33;101308.69;8283547;28;20030;-51
2022/09/22 09:58:01;;;;;;;7.35;2.00;;;;;;;24.21;48.76;101305.75;8285625;28;20486;-52
2022/09/22 10:02:03;;;;;;;4.15;1.83;;;;;;;23.84;48.72;101292.41;8283567;28;20407;-48
2022/09/22 10:06:07;;;;;;;3.95;2.40;;;;;;;24.40;48.82;101293.84;8284927;28;20551;-49
2022/09/22 10:14:50;;;;;;;3.30;1.83;;;;;;;24.87;46.30;101279.81;8287440;27;20393;-49
2022/09/22 10:19:02;;;;;;;3.70;1.80;;;;;;;24.90;45.90;101279.41;8286684;28;20606;-51
2022/09/22 10:23:20;;;;;;;2.33;1.70;;;;;;;24.73;45.27;101290.06;8286425;28;20067;-52
2022/09/22 10:27:23;;;;;;;1.65;1.13;;;;;;;26.22;44.88;101281.44;8287760;28;20391;-51
2022/09/22 10:31:24;;;;;;;2.15;1.23;;;;;;;25.97;43.41;101273.06;8277647;28;20037;-51
2022/09/22 10:35:27;;;;;;;1.58;1.20;;;;;;;24.98;45.54;101262.56;8283207;28;20042;-49
2022/09/22 10:39:39;;;;;;;1.70;1.40;;;;;;;25.86;43.62;101254.34;8283969;28;20042;-50
2022/09/22 10:43:50;;;;;;;3.35;1.33;;;;;;;26.45;43.00;101252.06;8285714;28;20073;-51
2022/09/22 10:47:58;;;;;;;2.40;1.25;;;;;;;26.37;42.54;101246.78;8285808;28;20491;-50
2022/09/22 10:52:40;;;;;;;3.20;1.10;;;;;;;27.32;40.52;101256.56;8282527;28;20038;-48
2022/09/22 10:56:48;;;;;;;2.67;1.23;;;;;;;26.41;41.48;101248.00;8283458;28;20146;-49
2022/09/22 11:00:54;;;;;;;2.47;1.25;;;;;;;25.89;42.92;101253.91;8283936;28;20506;-49
2022/09/22 11:12:15;;;;;;;3.38;1.65;;;;;;;25.97;43.30;101256.44;8285238;28;20403;-50
2022/09/22 11:14:42;;;;;;;2.13;1.30;;;;;;;26.25;42.17;101244.94;8386761;27;20461;-48
2022/09/22 11:19:23;;;;;;;4.82;1.27;;;;;;;26.13;43.69;101228.19;8367967;28;20067;-50
2022/09/22 11:23:51;;;;;;;1.80;1.20;;;;;;;26.44;42.29;101230.91;8350612;28;20044;-50
2022/09/22 11:37:26;;;;;;;4.50;1.10;;;;;;;26.64;41.09;101217.75;8330223;27;20430;-50
2022/09/22 11:45:53;;;;;;;1.05;0.93;;;;;;;25.97;42.25;101205.66;8389188;27;20707;-51
2022/09/22 11:54:34;;;;;;;1.80;1.02;;;;;;;26.96;40.58;101189.88;8389014;27;21033;-52
2022/09/22 11:58:40;;;;;;;1.50;0.85;;;;;;;27.48;40.25;101189.25;8375705;28;20129;-48
2022/09/22 12:03:03;;;;;;;1.77;0.80;;;;;;;26.94;39.63;101187.34;8383315;28;20045;-51
2022/09/22 12:07:15;;;;;;;1.73;0.95;;;;;;;25.68;42.32;101175.84;8370402;28;20498;-49
2022/09/22 12:11:18;;;;;;;2.45;1.20;;;;;;;26.38;41.61;101173.56;8382983;28;20033;-50
2022/09/22 12:15:28;;;;;;;3.25;1.00;;;;;;;26.63;39.97;101157.78;8382889;28;20032;-49
2022/09/22 12:19:39;;;;;;;3.17;0.93;;;;;;;27.37;40.92;101159.47;8377922;28;20055;-50
2022/09/22 12:23:44;;;;;;;4.57;0.90;;;;;;;26.20;41.90;101145.81;8377312;28;20409;-52
2022/09/22 12:27:45;;;;;;;2.85;1.63;;;;;;;26.20;41.53;101154.13;8378660;28;20037;-50
2022/09/22 12:31:48;;;;;;;1.55;0.98;;;;;;;26.34;40.71;101136.28;8376673;28;20558;-51
2022/09/22 12:35:53;;;;;;;2.47;1.05;;;;;;;26.56;40.98;101142.28;8383098;28;20039;-48
2022/09/22 12:40:00;;;;;;;3.03;1.00;;;;;;;25.66;43.17;101140.03;8380237;28;20036;-48
2022/09/22 12:44:11;;;;;;;2.53;0.90;;;;;;;22.99;46.79;101132.84;8381988;28;20078;-50
2022/09/22 12:48:16;;;;;;;3.40;0.90;;;;;;;22.03;48.92;101134.78;8381847;28;20409;-49
2022/09/22 12:52:40;;;;;;;1.52;0.90;;;;;;;21.11;49.61;101132.94;8381443;28;20279;-48
2022/09/22 12:56:45;;;;;;;3.15;0.98;;;;;;;20.81;49.97;101133.19;8376980;28;20062;-47
2022/09/22 13:00:47;;;;;;;;;;;;;;;21.20;51.03;101114.47;8377295;28;20401;-47
2022/09/22 13:13:23;;;;;;;2.50;1.15;;;;;;;20.71;50.76;101114.22;8387843;27;20399;-52
2022/09/22 13:17:45;;;;;;;2.08;1.15;;;;;;;20.04;51.13;101109.00;8353608;28;20024;-49
2022/09/22 13:21:46;;;;;;;3.60;1.05;;;;;;;19.82;53.11;101105.25;8373282;28;20120;-48
2022/09/22 13:25:50;;;;;;;1.80;0.93;;;;;;;20.24;53.67;101094.56;8353546;28;20053;-48
2022/09/22 13:29:59;;;;;;;3.27;1.30;;;;;;;20.34;51.57;101099.78;8359629;28;20503;-48
2022/09/22 13:34:28;;;;;;;4.07;1.55;;;;;;;20.46;52.40;101099.09;8380425;28;20037;-48
2022/09/22 13:38:32;;;;;;;4.25;1.10;;;;;;;20.42;51.85;101086.81;8406738;28;20059;-48
2022/09/22 13:42:32;;;;;;;2.60;0.90;;;;;;;20.14;52.30;101083.00;8386124;28;20041;-50
2022/09/22 13:46:40;;;;;;;3.00;1.10;;;;;;;20.17;54.80;101079.03;8397675;28;20047;-50
2022/09/22 13:50:49;;;;;;;1.27;0.90;;;;;;;20.70;51.69;101073.19;8408335;28;20033;-48
2022/09/22 13:54:55;;;;;;;2.45;1.10;;;;;;;20.40;52.17;101071.56;8378628;28;20098;-49
2022/09/22 13:58:58;;;;;;;2.40;1.45;;;;;;;20.18;52.07;101067.84;8398000;28;20060;-51
2022/09/22 14:03:02;;;;;;;4.20;1.45;;;;;;;20.05;52.14;101064.88;8380414;28;20085;-49
2022/09/22 14:07:09;;;;;;;2.80;0.98;;;;;;;19.97;53.24;101064.13;8384691;28;20175;-48
2022/09/22 14:11:15;;;;;;;3.63;1.80;;;;;;;19.87;53.05;101058.91;8380171;28;20482;-48
2022/09/22 14:15:42;;;;;;;2.58;0.90;;;;;;;20.12;52.50;101046.63;8377070;28;20040;-49
2022/09/22 14:19:54;;;;;;;1.13;0.93;;;;;;;20.33;51.33;101043.13;8401702;28;20293;-52
2022/09/22 14:23:56;;;;;;;1.67;0.70;;;;;;;20.11;53.17;101039.44;8375002;28;20410;-49
2022/09/22 14:27:58;;;;;;;2.88;1.23;;;;;;;20.24;50.48;101036.03;8356212;28;20025;-48
2022/09/22 14:32:08;;;;;;;1.73;1.08;;;;;;;20.09;51.31;101029.66;8357309;28;20032;-48
2022/09/22 14:36:16;;;;;;;1.67;0.70;;;;;;;19.92;51.54;101022.66;8383911;28;20047;-50
2022/09/22 14:40:19;;;;;;;2.92;0.88;;;;;;;20.12;51.22;101023.78;8362223;28;20033;-48
2022/09/22 14:44:25;;;;;;;2.03;1.00;;;;;;;20.01;52.03;101016.91;8356149;28;20451;-49
2022/09/22 14:48:35;;;;;;;1.05;0.70;;;;;;;19.81;51.30;101015.75;8367999;28;20037;-50
2022/09/22 14:52:41;;;;;;;2.05;1.00;;;;;;;19.95;51.88;101011.31;8355728;28;20040;-51
2022/09/22 14:56:42;;;;;;;1.33;0.90;;;;;;;19.90;52.38;101008.25;8357241;28;20033;-48
2022/09/22 15:05:44;;;;;;;1.52;0.80;;;;;;;19.98;50.84;100994.47;8378067;28;20025;-48
2022/09/22 15:09:52;;;;;;;1.02;0.70;;;;;;;19.79;50.43;100995.03;8388404;28;20036;-48
2022/09/22 15:13:53;;;;;;;0.60;0.47;;;;;;;19.75;51.64;100991.78;8388158;28;20041;-48
2022/09/22 15:18:26;;;;;;;0.98;0.60;;;;;;;19.70;51.53;100996.16;8382795;28;20036;-52
2022/09/22 15:22:16;;;;;;;0.70;0.60;;;;;;;19.59;51.65;100993.84;8385730;28;20071;-47
2022/09/22 15:26:23;;;;;;;2.15;1.08;;;;;;;19.52;52.14;100986.38;8387422;28;20033;-48
2022/09/22 15:30:25;;;;;;;2.83;0.60;;;;;;;19.52;52.53;100987.41;8390645;28;20028;-49
2022/09/22 15:34:25;;;;;;;1.35;0.80;;;;;;;19.44;52.35;100975.50;8375800;28;20029;-48
2022/09/22 15:38:29;;;;;;;2.40;0.63;;;;;;;19.48;53.22;100975.13;8386305;28;20052;-49
2022/09/22 15:42:29;;;;;;;4.03;0.73;;;;;;;19.41;52.79;100975.88;8386339;28;20455;-48
2022/09/22 15:46:50;;;;;;;1.67;0.70;;;;;;;19.32;52.90;100966.03;8386885;28;20439;-50
2022/09/22 15:50:52;;;;;;;1.20;0.50;;;;;;;19.38;53.37;100957.03;8386196;28;20048;-49
2022/09/22 15:54:52;;;;;;;0.80;0.60;;;;;;;19.29;54.31;100957.31;8381375;28;20091;-48
2022/09/22 15:58:57;;;;;;;1.58;0.50;;;;;;;19.37;54.66;100952.59;8370395;28;20036;-51
2022/09/22 16:02:59;;;;;;;;;;;;;;;19.33;55.07;100959.50;8356967;28;20047;-49
2022/09/22 16:07:05;;;;;;;3.42;1.23;;;;;;;19.25;54.86;100954.03;8351407;28;20007;-48
2022/09/22 16:11:05;;;;;;;2.50;0.80;;;;;;;19.19;55.71;100952.03;8353778;28;20053;-48
2022/09/22 16:15:12;;;;;;;3.10;0.95;;;;;;;19.10;55.07;100944.09;8352606;28;20124;-47
2022/09/22 16:19:13;;;;;;;1.08;0.50;;;;;;;19.06;54.66;100948.25;8353579;28;20124;-48
2022/09/22 16:23:13;;;;;;;1.33;0.80;;;;;;;18.95;55.29;100952.28;8331896;28;20037;-47
2022/09/22 16:27:14;;;;;;;1.00;0.70;;;;;;;18.86;56.62;100939.66;8336237;28;20073;-48
2022/09/22 16:31:15;;;;;;;2.10;0.90;;;;;;;18.80;56.44;100945.88;8326175;28;20280;-48
2022/09/22 16:35:15;;;;;;;7.35;1.67;;;;;;;18.77;56.21;100954.47;8327134;28;20363;-48
2022/09/22 16:39:16;;;;;;;2.25;0.93;;;;;;;18.69;56.32;100946.31;8334266;28;20041;-48
2022/09/22 16:43:16;;;;;;;3.42;1.10;;;;;;;18.62;56.41;100945.34;8326583;28;20112;-48
2022/09/22 16:47:19;;;;;;;1.52;1.00;;;;;;;18.50;57.25;100948.66;8322524;28;20477;-47
2022/09/22 16:51:20;;;;;;;3.45;1.35;;;;;;;18.42;57.57;100938.59;8328218;28;20044;-49
2022/09/22 16:55:20;;;;;;;3.25;0.90;;;;;;;18.29;58.13;100952.00;8322808;28;20056;-49
2022/09/22 16:59:22;;;;;;;2.08;0.93;;;;;;;18.17;58.65;100950.69;8337041;28;20044;-47
2022/09/22 17:03:22;;;;;;;2.30;0.88;;;;;;;18.09;59.08;100948.03;8337643;28;20026;-47
2022/09/22 17:07:23;;;;;;;1.65;0.80;;;;;;;18.00;59.63;100959.16;8322432;28;20140;-48
2022/09/22 17:11:30;;;;;;;1.35;1.13;;;;;;;17.84;60.15;100949.13;8322729;28;20040;-48
2022/09/22 17:15:34;;;;;;;1.48;1.00;;;;;;;17.71;60.54;100954.31;8319109;28;20037;-48
2022/09/22 17:19:35;;;;;;;;;;;;;;;17.60;61.09;100946.50;8319602;28;20036;-47
2022/09/22 17:23:36;;;;;;;2.30;1.45;;;;;;;17.44;61.40;100941.91;8320286;28;20363;-47
2022/09/22 17:27:37;;;;;;;2.42;1.20;;;;;;;17.36;61.98;100946.53;8322856;28;20353;-47
2022/09/22 17:31:40;;;;;;;4.15;1.23;;;;;;;17.28;61.83;100935.59;8341149;28;20037;-50
2022/09/22 17:35:40;;;;;;;4.13;1.20;;;;;;;17.18;62.41;100934.94;8325026;28;20417;-49
2022/09/22 17:39:42;;;;;;;3.87;1.10;;;;;;;17.05;63.22;100942.81;8339995;28;20115;-48
2022/09/22 17:43:42;;;;;;;2.95;1.30;;;;;;;16.95;63.61;100939.38;8329057;28;20275;-49
2022/09/22 17:56:27;;;;;;;3.78;1.10;;;;;;;16.59;65.10;100938.84;8331113;28;20034;-47
2022/09/22 18:00:29;;;;;;;3.33;1.70;;;;;;;16.52;65.40;100948.75;8361157;28;20043;-48
2022/09/22 18:04:30;;;;;;;2.85;1.85;;;;;;;16.49;65.56;100949.06;8368149;28;20040;-48
2022/09/22 18:08:31;;;;;;;6.53;1.52;;;;;;;16.39;65.85;100936.56;8354258;28;20072;-48
2022/09/22 18:12:33;;;;;;;2.65;2.08;;;;;;;16.37;66.21;100949.50;8354676;28;20071;-49
2022/09/22 18:16:34;;;;;;;5.97;2.25;;;;;;;16.24;66.33;100943.69;8352868;28;20077;-50
2022/09/22 18:20:34;;;;;;;4.00;2.38;;;;;;;16.13;67.12;100946.75;8352273;28;20045;-48
2022/09/22 18:24:34;;;;;;;7.00;1.70;;;;;;;15.87;68.42;100940.50;8354394;28;20112;-50
2022/09/22 18:28:35;;;;;;;15.27;7.50;;;;;;;15.85;68.73;100942.56;8337966;28;20086;-48
2022/09/22 18:32:36;;;;;;;5.63;2.80;;;;;;;15.75;69.04;100948.13;8333195;28;20037;-49
2022/09/22 18:36:38;;;;;;;3.13;2.30;;;;;;;15.62;69.62;100954.00;8323259;28;20191;-47
2022/09/22 18:40:39;;;;;;;15.40;6.82;;;;;;;15.51;70.04;100954.31;8340884;28;20305;-48
2022/09/22 18:44:40;;;;;;;5.10;2.47;;;;;;;15.36;71.04;100963.19;8353355;28;20041;-47
2022/09/22 18:48:41;;;;;;;2.63;1.95;;;;;;;15.20;71.77;100961.22;8328571;28;20091;-47
2022/09/22 18:52:44;;;;;;;3.75;1.60;;;;;;;15.03;72.20;100953.94;8332283;28;20037;-47
2022/09/22 18:56:46;;;;;;;3.53;2.20;;;;;;;14.87;72.97;100956.53;8335220;28;20040;-49
2022/09/22 19:00:49;;;;;;;4.25;2.88;;;;;;;14.82;73.18;100947.13;8330744;28;20041;-48
2022/09/22 19:04:50;;;;;;;5.10;3.00;;;;;;;14.73;73.48;100953.53;8336387;28;20096;-50
2022/09/22 19:08:50;;;;;;;2.22;1.70;;;;;;;14.66;73.52;100953.28;8332517;28;20044;-47
2022/09/22 19:12:51;;;;;;;3.53;1.90;;;;;;;14.59;73.82;100944.03;8339974;28;20040;-49
2022/09/22 19:16:52;;;;;;;4.47;3.50;;;;;;;14.49;74.21;100950.56;8343740;28;20292;-48
2022/09/22 19:20:52;;;;;;;6.75;3.15;;;;;;;14.43;74.86;100957.50;8342803;28;20033;-49
2022/09/22 19:24:53;;;;;;;4.95;2.10;;;;;;;14.27;75.92;100951.84;8324377;28;20087;-47
2022/09/22 19:28:53;;;;;;;3.58;1.42;;;;;;;14.19;76.27;100959.03;8341205;28;20032;-47
2022/09/22 19:32:54;;;;;;;5.25;2.17;;;;;;;14.08;77.01;100957.41;8336482;28;20029;-47
2022/09/22 19:36:55;;;;;;;4.72;2.78;;;;;;;14.05;77.15;100968.56;8327193;28;20029;-51
2022/09/22 19:40:56;;;;;;;2.75;2.10;;;;;;;13.94;77.59;100971.50;8343406;28;20428;-48
2022/09/22 19:44:57;;;;;;;4.07;1.88;;;;;;;13.86;78.17;100963.25;8334602;28;20045;-52
2022/09/22 19:48:59;;;;;;;4.57;2.67;;;;;;;13.77;78.39;100958.72;8324065;28;20520;-49
2022/09/22 19:52:59;;;;;;;5.05;2.10;;;;;;;13.64;78.92;100963.63;8322341;28;20056;-50
2022/09/22 19:57:00;;;;;;;2.80;2.20;;;;;;;13.49;80.23;100965.13;8323138;28;20167;-49
2022/09/22 20:01:01;;;;;;;4.28;2.47;;;;;;;13.32;82.92;100963.16;8352729;28;20076;-48
2022/09/22 20:05:01;;;;;;;5.90;2.60;;;;;;;12.71;86.21;100967.22;8354804;28;20029;-50